sensor_id;sensor_type;location;lat;lon;timestamp;pressure;altitude;pressure_sealevel;temperature;humidity
25430;BME280;13360;48.152;-1.788;2023-05-19T00:00:57;102381.13;;;13.90;100.00
25430;BME280;13360;48.152;-1.788;2023-05-19T00:03:24;102392.22;;;13.90;100.00
25430;BME280;13360;48.152;-1.788;2023-05-19T00:05:51;102392.22;;;13.90;100.00
25430;BME280;13360;48.152;-1.788;2023-05-19T00:08:17;102398.91;;;13.89;100.00
25430;BME280;13360;48.152;-1.788;2023-05-19T00:10:43;102388.34;;;13.86;100.00
25430;BME280;13360;48.152;-1.788;2023-05-19T00:13:09;102390.56;;;13.84;100.00
25430;BME280;13360;48.152;-1.788;2023-05-19T00:15:34;102378.38;;;13.80;100.00
25430;BME280;13360;48.152;-1.788;2023-05-19T00:18:00;102375.03;;;13.78;100.00
25430;BME280;13360;48.152;-1.788;2023-05-19T00:20:25;102367.53;;;13.79;100.00
25430;BME280;13360;48.152;-1.788;2023-05-19T00:22:51;102366.72;;;13.78;100.00
25430;BME280;13360;48.152;-1.788;2023-05-19T00:25:16;102365.88;;;13.78;100.00
25430;BME280;13360;48.152;-1.788;2023-05-19T00:27:41;102367.81;;;13.77;100.00
25430;BME280;13360;48.152;-1.788;2023-05-19T00:30:07;102371.13;;;13.74;100.00
25430;BME280;13360;48.152;-1.788;2023-05-19T00:32:32;102371.16;;;13.64;100.00
25430;BME280;13360;48.152;-1.788;2023-05-19T00:34:58;102375.03;;;13.63;100.00
25430;BME280;13360;48.152;-1.788;2023-05-19T00:37:23;102364.22;;;13.61;100.00
25430;BME280;13360;48.152;-1.788;2023-05-19T00:39:48;102374.19;;;13.62;100.00
25430;BME280;13360;48.152;-1.788;2023-05-19T00:42:14;102374.75;;;13.64;100.00
25430;BME280;13360;48.152;-1.788;2023-05-19T00:44:39;102378.38;;;13.60;100.00
25430;BME280;13360;48.152;-1.788;2023-05-19T00:47:05;102375.59;;;13.55;100.00
25430;BME280;13360;48.152;-1.788;2023-05-19T00:49:31;102382.81;;;13.56;100.00
25430;BME280;13360;48.152;-1.788;2023-05-19T00:51:56;102385.88;;;13.59;100.00
25430;BME280;13360;48.152;-1.788;2023-05-19T00:54:21;102390.59;;;13.54;100.00
25430;BME280;13360;48.152;-1.788;2023-05-19T00:56:47;102383.91;;;13.50;100.00
25430;BME280;13360;48.152;-1.788;2023-05-19T00:59:13;102386.13;;;13.53;100.00
25430;BME280;13360;48.152;-1.788;2023-05-19T01:01:39;102389.72;;;13.53;100.00
25430;BME280;13360;48.152;-1.788;2023-05-19T01:04:04;102388.66;;;13.54;100.00
25430;BME280;13360;48.152;-1.788;2023-05-19T01:06:33;102382.50;;;13.52;100.00
25430;BME280;13360;48.152;-1.788;2023-05-19T01:08:59;102389.44;;;13.50;100.00
25430;BME280;13360;48.152;-1.788;2023-05-19T01:11:24;102383.91;;;13.50;100.00
25430;BME280;13360;48.152;-1.788;2023-05-19T01:13:49;102383.34;;;13.48;100.00
25430;BME280;13360;48.152;-1.788;2023-05-19T01:16:24;102383.63;;;13.46;100.00
25430;BME280;13360;48.152;-1.788;2023-05-19T01:19:04;102385.56;;;13.46;100.00
25430;BME280;13360;48.152;-1.788;2023-05-19T01:31:40;102383.06;;;13.34;100.00
25430;BME280;13360;48.152;-1.788;2023-05-19T01:34:06;102391.66;;;13.32;100.00
25430;BME280;13360;48.152;-1.788;2023-05-19T01:36:31;102392.75;;;13.31;100.00
25430;BME280;13360;48.152;-1.788;2023-05-19T01:38:58;102394.44;;;13.32;100.00
25430;BME280;13360;48.152;-1.788;2023-05-19T01:41:23;102401.09;;;13.31;100.00
25430;BME280;13360;48.152;-1.788;2023-05-19T01:43:50;102396.13;;;13.33;100.00
25430;BME280;13360;48.152;-1.788;2023-05-19T01:46:15;102402.22;;;13.35;100.00
25430;BME280;13360;48.152;-1.788;2023-05-19T01:48:42;102390.56;;;13.33;100.00
25430;BME280;13360;48.152;-1.788;2023-05-19T01:51:07;102402.22;;;13.35;100.00
25430;BME280;13360;48.152;-1.788;2023-05-19T01:53:33;102394.44;;;13.32;100.00
25430;BME280;13360;48.152;-1.788;2023-05-19T01:55:58;102395.81;;;13.30;100.00
25430;BME280;13360;48.152;-1.788;2023-05-19T01:58:32;102406.06;;;13.29;100.00
25430;BME280;13360;48.152;-1.788;2023-05-19T02:11:46;102416.63;;;13.22;100.00
25430;BME280;13360;48.152;-1.788;2023-05-19T02:14:29;102397.75;;;13.19;100.00
25430;BME280;13360;48.152;-1.788;2023-05-19T02:16:56;102408.25;;;13.17;100.00
25430;BME280;13360;48.152;-1.788;2023-05-19T02:19:32;102412.97;;;13.17;100.00
25430;BME280;13360;48.152;-1.788;2023-05-19T02:21:57;102410.47;;;13.15;100.00
25430;BME280;13360;48.152;-1.788;2023-05-19T02:24:23;102407.97;;;13.13;100.00
25430;BME280;13360;48.152;-1.788;2023-05-19T02:26:48;102411.03;;;13.12;100.00
25430;BME280;13360;48.152;-1.788;2023-05-19T02:29:14;102406.56;;;13.11;100.00
25430;BME280;13360;48.152;-1.788;2023-05-19T02:31:39;102402.94;;;13.10;100.00
25430;BME280;13360;48.152;-1.788;2023-05-19T02:34:05;102407.66;;;13.10;100.00
25430;BME280;13360;48.152;-1.788;2023-05-19T02:36:32;102399.63;;;13.08;100.00
25430;BME280;13360;48.152;-1.788;2023-05-19T02:38:59;102408.22;;;13.07;100.00
25430;BME280;13360;48.152;-1.788;2023-05-19T02:41:25;102391.28;;;13.03;100.00
25430;BME280;13360;48.152;-1.788;2023-05-19T02:43:51;102404.88;;;13.00;100.00
25430;BME280;13360;48.152;-1.788;2023-05-19T02:46:16;102402.09;;;13.00;100.00
25430;BME280;13360;48.152;-1.788;2023-05-19T02:48:41;102394.88;;;12.99;100.00
25430;BME280;13360;48.152;-1.788;2023-05-19T02:51:06;102388.50;;;12.98;100.00
25430;BME280;13360;48.152;-1.788;2023-05-19T02:53:31;102388.22;;;12.95;100.00
25430;BME280;13360;48.152;-1.788;2023-05-19T02:55:57;102394.06;;;12.93;100.00
25430;BME280;13360;48.152;-1.788;2023-05-19T02:58:22;102390.97;;;12.90;100.00
25430;BME280;13360;48.152;-1.788;2023-05-19T03:00:47;102396.50;;;12.90;100.00
25430;BME280;13360;48.152;-1.788;2023-05-19T03:03:12;102390.13;;;12.89;100.00
25430;BME280;13360;48.152;-1.788;2023-05-19T03:05:38;102392.34;;;12.87;100.00
25430;BME280;13360;48.152;-1.788;2023-05-19T03:08:03;102387.63;;;12.88;100.00
25430;BME280;13360;48.152;-1.788;2023-05-19T03:10:29;102377.09;;;12.85;100.00
25430;BME280;13360;48.152;-1.788;2023-05-19T03:12:54;102368.22;;;12.82;100.00
25430;BME280;13360;48.152;-1.788;2023-05-19T03:15:19;102367.38;;;12.82;100.00
25430;BME280;13360;48.152;-1.788;2023-05-19T03:17:47;102359.34;;;12.80;100.00
25430;BME280;13360;48.152;-1.788;2023-05-19T03:20:12;102352.41;;;12.78;100.00
25430;BME280;13360;48.152;-1.788;2023-05-19T03:22:39;102354.59;;;12.76;100.00
25430;BME280;13360;48.152;-1.788;2023-05-19T03:25:05;102351.00;;;12.75;100.00
25430;BME280;13360;48.152;-1.788;2023-05-19T03:27:30;102353.78;;;12.75;100.00
25430;BME280;13360;48.152;-1.788;2023-05-19T03:29:56;102349.34;;;12.74;100.00
25430;BME280;13360;48.152;-1.788;2023-05-19T03:32:21;102340.75;;;12.71;100.00
25430;BME280;13360;48.152;-1.788;2023-05-19T03:34:46;102339.91;;;12.70;100.00
25430;BME280;13360;48.152;-1.788;2023-05-19T03:37:11;102339.31;;;12.68;100.00
25430;BME280;13360;48.152;-1.788;2023-05-19T03:39:36;102337.66;;;12.67;100.00
25430;BME280;13360;48.152;-1.788;2023-05-19T03:42:02;102341.53;;;12.66;100.00
25430;BME280;13360;48.152;-1.788;2023-05-19T03:44:27;102353.16;;;12.63;100.00
25430;BME280;13360;48.152;-1.788;2023-05-19T03:46:52;102348.16;;;12.60;100.00
25430;BME280;13360;48.152;-1.788;2023-05-19T03:49:17;102362.31;;;12.59;100.00
25430;BME280;13360;48.152;-1.788;2023-05-19T03:51:43;102370.34;;;12.60;100.00
25430;BME280;13360;48.152;-1.788;2023-05-19T03:54:08;102381.44;;;12.60;100.00
25430;BME280;13360;48.152;-1.788;2023-05-19T03:56:37;102368.94;;;12.58;100.00
25430;BME280;13360;48.152;-1.788;2023-05-19T03:59:02;102376.72;;;12.56;100.00
25430;BME280;13360;48.152;-1.788;2023-05-19T04:01:30;102377.53;;;12.56;100.00
25430;BME280;13360;48.152;-1.788;2023-05-19T04:03:55;102368.13;;;12.57;100.00
25430;BME280;13360;48.152;-1.788;2023-05-19T04:06:20;102369.78;;;12.58;100.00
25430;BME280;13360;48.152;-1.788;2023-05-19T04:08:46;102381.44;;;12.60;100.00
25430;BME280;13360;48.152;-1.788;2023-05-19T04:11:11;102385.84;;;12.56;100.00
25430;BME280;13360;48.152;-1.788;2023-05-19T04:13:36;102395.84;;;12.57;100.00
25430;BME280;13360;48.152;-1.788;2023-05-19T04:16:01;102388.34;;;12.58;100.00
25430;BME280;13360;48.152;-1.788;2023-05-19T04:18:27;102394.72;;;12.58;100.00
25430;BME280;13360;48.152;-1.788;2023-05-19T04:20:52;102400.28;;;12.58;100.00
25430;BME280;13360;48.152;-1.788;2023-05-19T04:23:17;102408.88;;;12.57;100.00
25430;BME280;13360;48.152;-1.788;2023-05-19T04:25:42;102420.78;;;12.57;100.00
25430;BME280;13360;48.152;-1.788;2023-05-19T04:28:07;102425.22;;;12.58;100.00
25430;BME280;13360;48.152;-1.788;2023-05-19T04:30:33;102409.69;;;12.57;100.00
25430;BME280;13360;48.152;-1.788;2023-05-19T04:32:58;102409.13;;;12.55;100.00
25430;BME280;13360;48.152;-1.788;2023-05-19T04:35:25;102410.25;;;12.54;100.00
25430;BME280;13360;48.152;-1.788;2023-05-19T04:37:50;102411.06;;;12.55;100.00
25430;BME280;13360;48.152;-1.788;2023-05-19T04:40:18;102414.13;;;12.53;100.00
25430;BME280;13360;48.152;-1.788;2023-05-19T04:42:45;102409.94;;;12.50;100.00
25430;BME280;13360;48.152;-1.788;2023-05-19T04:45:10;102409.94;;;12.50;100.00
25430;BME280;13360;48.152;-1.788;2023-05-19T04:47:39;102404.66;;;12.49;100.00
25430;BME280;13360;48.152;-1.788;2023-05-19T04:50:05;102411.28;;;12.48;100.00
25430;BME280;13360;48.152;-1.788;2023-05-19T04:52:31;102414.06;;;12.48;100.00
25430;BME280;13360;48.152;-1.788;2023-05-19T04:54:56;102414.34;;;12.46;100.00
25430;BME280;13360;48.152;-1.788;2023-05-19T04:57:22;102414.06;;;12.48;100.00
25430;BME280;13360;48.152;-1.788;2023-05-19T04:59:47;102420.44;;;12.48;100.00
25430;BME280;13360;48.152;-1.788;2023-05-19T05:02:13;102418.50;;;12.49;100.00
25430;BME280;13360;48.152;-1.788;2023-05-19T05:04:38;102418.78;;;12.47;100.00
25430;BME280;13360;48.152;-1.788;2023-05-19T05:07:06;102429.59;;;12.49;100.00
25430;BME280;13360;48.152;-1.788;2023-05-19T05:09:32;102417.66;;;12.48;100.00
25430;BME280;13360;48.152;-1.788;2023-05-19T05:11:57;102425.16;;;12.48;100.00
25430;BME280;13360;48.152;-1.788;2023-05-19T05:14:22;102422.38;;;12.48;100.00
25430;BME280;13360;48.152;-1.788;2023-05-19T05:16:48;102419.63;;;12.48;100.00
25430;BME280;13360;48.152;-1.788;2023-05-19T05:19:13;102418.78;;;12.47;100.00
25430;BME280;13360;48.152;-1.788;2023-05-19T05:21:39;102421.28;;;12.49;100.00
25430;BME280;13360;48.152;-1.788;2023-05-19T05:24:05;102421.03;;;12.50;100.00
25430;BME280;13360;48.152;-1.788;2023-05-19T05:26:32;102427.16;;;12.52;100.00
25430;BME280;13360;48.152;-1.788;2023-05-19T05:28:57;102434.63;;;12.52;100.00
25430;BME280;13360;48.152;-1.788;2023-05-19T05:31:22;102435.47;;;12.52;100.00
25430;BME280;13360;48.152;-1.788;2023-05-19T05:33:47;102450.16;;;12.53;100.00
25430;BME280;13360;48.152;-1.788;2023-05-19T05:36:13;102451.81;;;12.54;100.00
25430;BME280;13360;48.152;-1.788;2023-05-19T05:38:38;102465.13;;;12.57;100.00
25430;BME280;13360;48.152;-1.788;2023-05-19T05:41:03;102495.09;;;12.60;100.00
25430;BME280;13360;48.152;-1.788;2023-05-19T05:43:29;102556.63;;;12.62;100.00
25430;BME280;13360;48.152;-1.788;2023-05-19T05:45:55;102669.78;;;12.65;100.00
25430;BME280;13360;48.152;-1.788;2023-05-19T05:48:20;102685.59;;;12.70;100.00
25430;BME280;13360;48.152;-1.788;2023-05-19T05:50:45;102711.44;;;12.70;100.00
25430;BME280;13360;48.152;-1.788;2023-05-19T05:53:20;102736.97;;;12.72;100.00
25430;BME280;13360;48.152;-1.788;2023-05-19T05:55:48;102761.66;;;12.74;100.00
25430;BME280;13360;48.152;-1.788;2023-05-19T05:58:13;102782.47;;;12.76;100.00
25430;BME280;13360;48.152;-1.788;2023-05-19T06:00:39;102836.56;;;12.79;100.00
25430;BME280;13360;48.152;-1.788;2023-05-19T06:03:07;102836.88;;;12.82;100.00
25430;BME280;13360;48.152;-1.788;2023-05-19T06:05:33;102872.97;;;12.88;100.00
25430;BME280;13360;48.152;-1.788;2023-05-19T06:07:58;102891.25;;;12.83;100.00
25430;BME280;13360;48.152;-1.788;2023-05-19T06:10:24;102917.94;;;12.90;100.00
25430;BME280;13360;48.152;-1.788;2023-05-19T06:12:49;102944.84;;;12.89;100.00
25430;BME280;13360;48.152;-1.788;2023-05-19T06:15:14;102966.53;;;12.92;100.00
25430;BME280;13360;48.152;-1.788;2023-05-19T06:17:40;102998.19;;;12.96;100.00
25430;BME280;13360;48.152;-1.788;2023-05-19T06:20:07;103015.16;;;13.00;100.00
25430;BME280;13360;48.152;-1.788;2023-05-19T06:22:34;103036.31;;;13.06;100.00
25430;BME280;13360;48.152;-1.788;2023-05-19T06:24:59;103033.59;;;13.11;100.00
25430;BME280;13360;48.152;-1.788;2023-05-19T06:27:24;103049.50;;;13.16;100.00
25430;BME280;13360;48.152;-1.788;2023-05-19T06:29:49;103058.44;;;13.18;100.00
25430;BME280;13360;48.152;-1.788;2023-05-19T06:32:15;103072.06;;;13.19;100.00
25430;BME280;13360;48.152;-1.788;2023-05-19T06:34:40;103092.91;;;13.22;100.00
25430;BME280;13360;48.152;-1.788;2023-05-19T06:37:05;103113.75;;;13.24;100.00
25430;BME280;13360;48.152;-1.788;2023-05-19T06:39:30;103117.41;;;13.30;100.00
25430;BME280;13360;48.152;-1.788;2023-05-19T06:41:56;103121.59;;;13.32;100.00
25430;BME280;13360;48.152;-1.788;2023-05-19T06:44:21;103146.34;;;13.34;100.00
25430;BME280;13360;48.152;-1.788;2023-05-19T06:46:46;103151.97;;;13.39;100.00
25430;BME280;13360;48.152;-1.788;2023-05-19T06:49:11;103157.84;;;13.42;100.00
25430;BME280;13360;48.152;-1.788;2023-05-19T06:51:37;103175.41;;;13.48;100.00
25430;BME280;13360;48.152;-1.788;2023-05-19T06:54:02;103188.44;;;13.48;100.00
25430;BME280;13360;48.152;-1.788;2023-05-19T06:56:27;103184.66;;;13.54;100.00
25430;BME280;13360;48.152;-1.788;2023-05-19T06:58:52;103197.50;;;13.60;100.00
25430;BME280;13360;48.152;-1.788;2023-05-19T07:01:18;103207.84;;;13.64;100.00
25430;BME280;13360;48.152;-1.788;2023-05-19T07:03:43;103218.41;;;13.67;100.00
25430;BME280;13360;48.152;-1.788;2023-05-19T07:06:08;103232.06;;;13.69;100.00
25430;BME280;13360;48.152;-1.788;2023-05-19T07:08:33;103246.53;;;13.71;100.00
25430;BME280;13360;48.152;-1.788;2023-05-19T07:11:01;103248.28;;;13.77;100.00
25430;BME280;13360;48.152;-1.788;2023-05-19T07:13:26;103265.06;;;13.87;100.00
25430;BME280;13360;48.152;-1.788;2023-05-19T07:15:51;103272.38;;;13.93;100.00
25430;BME280;13360;48.152;-1.788;2023-05-19T07:18:19;103282.22;;;14.01;100.00
25430;BME280;13360;48.152;-1.788;2023-05-19T07:20:45;103283.09;;;14.07;100.00
25430;BME280;13360;48.152;-1.788;2023-05-19T07:23:10;103288.47;;;14.13;100.00
25430;BME280;13360;48.152;-1.788;2023-05-19T07:25:35;103297.72;;;14.19;100.00
25430;BME280;13360;48.152;-1.788;2023-05-19T07:28:00;103321.13;;;14.23;100.00
25430;BME280;13360;48.152;-1.788;2023-05-19T07:30:26;103316.97;;;14.25;100.00
25430;BME280;13360;48.152;-1.788;2023-05-19T07:32:52;103338.44;;;14.30;100.00
25430;BME280;13360;48.152;-1.788;2023-05-19T07:35:17;103374.31;;;14.31;100.00
25430;BME280;13360;48.152;-1.788;2023-05-19T07:37:42;103398.56;;;14.36;100.00
25430;BME280;13360;48.152;-1.788;2023-05-19T07:40:07;103406.16;;;14.41;100.00
25430;BME280;13360;48.152;-1.788;2023-05-19T07:42:33;103403.72;;;14.44;100.00
25430;BME280;13360;48.152;-1.788;2023-05-19T07:44:58;103411.09;;;14.55;100.00
25430;BME280;13360;48.152;-1.788;2023-05-19T07:47:24;103410.59;;;14.58;100.00
25430;BME280;13360;48.152;-1.788;2023-05-19T07:49:49;103432.38;;;14.67;100.00
25430;BME280;13360;48.152;-1.788;2023-05-19T07:52:14;103451.38;;;14.75;100.00
25430;BME280;13360;48.152;-1.788;2023-05-19T07:54:42;103452.03;;;14.82;100.00
25430;BME280;13360;48.152;-1.788;2023-05-19T07:57:07;103458.03;;;14.95;100.00
25430;BME280;13360;48.152;-1.788;2023-05-19T07:59:32;103460.63;;;15.02;100.00
25430;BME280;13360;48.152;-1.788;2023-05-19T08:01:57;103464.66;;;15.16;100.00
25430;BME280;13360;48.152;-1.788;2023-05-19T08:04:23;103487.47;;;15.40;100.00
25430;BME280;13360;48.152;-1.788;2023-05-19T08:06:48;103480.25;;;15.66;100.00
25430;BME280;13360;48.152;-1.788;2023-05-19T08:09:13;103430.16;;;15.76;100.00
25430;BME280;13360;48.152;-1.788;2023-05-19T08:11:38;103380.00;;;15.76;100.00
25430;BME280;13360;48.152;-1.788;2023-05-19T08:14:04;103375.09;;;15.94;100.00
25430;BME280;13360;48.152;-1.788;2023-05-19T08:16:30;103338.06;;;15.98;100.00
25430;BME280;13360;48.152;-1.788;2023-05-19T08:18:55;103318.81;;;15.97;100.00
25430;BME280;13360;48.152;-1.788;2023-05-19T08:21:20;103284.25;;;15.98;100.00
25430;BME280;13360;48.152;-1.788;2023-05-19T08:23:46;103241.03;;;15.95;100.00
25430;BME280;13360;48.152;-1.788;2023-05-19T08:26:11;103186.97;;;16.01;100.00
25430;BME280;13360;48.152;-1.788;2023-05-19T08:28:36;103166.66;;;16.11;100.00
25430;BME280;13360;48.152;-1.788;2023-05-19T08:31:01;103138.25;;;16.29;100.00
25430;BME280;13360;48.152;-1.788;2023-05-19T08:33:27;103093.88;;;16.53;100.00
25430;BME280;13360;48.152;-1.788;2023-05-19T08:35:52;103041.69;;;16.59;100.00
25430;BME280;13360;48.152;-1.788;2023-05-19T08:38:19;103020.53;;;16.68;100.00
25430;BME280;13360;48.152;-1.788;2023-05-19T08:40:45;102958.22;;;16.88;100.00
25430;BME280;13360;48.152;-1.788;2023-05-19T08:43:10;102876.63;;;17.01;100.00
25430;BME280;13360;48.152;-1.788;2023-05-19T08:45:35;102882.94;;;17.17;100.00
25430;BME280;13360;48.152;-1.788;2023-05-19T08:48:02;102899.56;;;17.37;100.00
25430;BME280;13360;48.152;-1.788;2023-05-19T08:50:29;102894.31;;;17.64;100.00
25430;BME280;13360;48.152;-1.788;2023-05-19T08:58:18;102799.03;;;18.38;100.00
25430;BME280;13360;48.152;-1.788;2023-05-19T09:00:46;102701.25;;;18.46;100.00
25430;BME280;13360;48.152;-1.788;2023-05-19T09:03:11;102627.63;;;18.83;100.00
25430;BME280;13360;48.152;-1.788;2023-05-19T09:05:39;102593.88;;;19.48;100.00
25430;BME280;13360;48.152;-1.788;2023-05-19T09:08:05;102504.28;;;19.93;100.00
25430;BME280;13360;48.152;-1.788;2023-05-19T09:10:30;102458.59;;;19.93;100.00
25430;BME280;13360;48.152;-1.788;2023-05-19T09:12:55;102394.56;;;19.50;100.00
25430;BME280;13360;48.152;-1.788;2023-05-19T09:15:21;102382.00;;;19.25;100.00
25430;BME280;13360;48.152;-1.788;2023-05-19T09:17:49;102337.22;;;19.11;100.00
25430;BME280;13360;48.152;-1.788;2023-05-19T09:20:15;102354.06;;;19.34;100.00
25430;BME280;13360;48.152;-1.788;2023-05-19T09:22:41;102347.63;;;19.78;100.00
25430;BME280;13360;48.152;-1.788;2023-05-19T09:25:16;102317.19;;;20.64;100.00
25430;BME280;13360;48.152;-1.788;2023-05-19T09:27:41;102285.66;;;21.02;100.00
25430;BME280;13360;48.152;-1.788;2023-05-19T09:30:07;102263.84;;;21.16;100.00
25430;BME280;13360;48.152;-1.788;2023-05-19T09:32:33;102245.50;;;21.45;100.00
25430;BME280;13360;48.152;-1.788;2023-05-19T09:35:01;102235.56;;;21.85;100.00
25430;BME280;13360;48.152;-1.788;2023-05-19T09:37:26;102227.25;;;21.98;100.00
25430;BME280;13360;48.152;-1.788;2023-05-19T09:39:51;102226.22;;;22.02;100.00
25430;BME280;13360;48.152;-1.788;2023-05-19T09:42:23;102223.56;;;21.76;100.00
25430;BME280;13360;48.152;-1.788;2023-05-19T09:44:57;102223.09;;;22.12;100.00
25430;BME280;13360;48.152;-1.788;2023-05-19T09:47:23;102209.59;;;22.47;100.00
25430;BME280;13360;48.152;-1.788;2023-05-19T09:49:48;102214.16;;;22.10;100.00
25430;BME280;13360;48.152;-1.788;2023-05-19T09:52:14;102218.84;;;22.27;100.00
25430;BME280;13360;48.152;-1.788;2023-05-19T09:54:40;102212.66;;;22.84;100.00
25430;BME280;13360;48.152;-1.788;2023-05-19T09:57:05;102223.50;;;22.94;100.00
25430;BME280;13360;48.152;-1.788;2023-05-19T09:59:31;102226.47;;;23.76;100.00
25430;BME280;13360;48.152;-1.788;2023-05-19T10:01:57;102228.34;;;24.33;100.00
25430;BME280;13360;48.152;-1.788;2023-05-19T10:04:23;102228.94;;;24.91;100.00
25430;BME280;13360;48.152;-1.788;2023-05-19T10:06:50;102229.28;;;25.45;100.00
25430;BME280;13360;48.152;-1.788;2023-05-19T10:09:22;102217.03;;;25.69;100.00
25430;BME280;13360;48.152;-1.788;2023-05-19T10:11:51;102234.16;;;25.76;100.00
25430;BME280;13360;48.152;-1.788;2023-05-19T10:14:20;102231.63;;;26.03;100.00
25430;BME280;13360;48.152;-1.788;2023-05-19T10:16:46;102231.31;;;26.24;100.00
25430;BME280;13360;48.152;-1.788;2023-05-19T10:19:13;102224.31;;;26.53;100.00
25430;BME280;13360;48.152;-1.788;2023-05-19T10:21:39;102233.06;;;26.63;100.00
25430;BME280;13360;48.152;-1.788;2023-05-19T10:24:05;102253.72;;;26.83;100.00
25430;BME280;13360;48.152;-1.788;2023-05-19T10:26:30;102227.72;;;26.78;100.00
25430;BME280;13360;48.152;-1.788;2023-05-19T10:28:56;102225.19;;;26.22;100.00
25430;BME280;13360;48.152;-1.788;2023-05-19T10:31:22;102223.44;;;24.82;100.00
25430;BME280;13360;48.152;-1.788;2023-05-19T10:33:55;102216.22;;;23.71;100.00
25430;BME280;13360;48.152;-1.788;2023-05-19T10:36:38;102227.31;;;22.69;100.00
25430;BME280;13360;48.152;-1.788;2023-05-19T10:39:10;102246.41;;;22.13;100.00
25430;BME280;13360;48.152;-1.788;2023-05-19T10:44:21;102238.81;;;21.58;100.00
25430;BME280;13360;48.152;-1.788;2023-05-19T10:46:50;102243.53;;;21.37;100.00
25430;BME280;13360;48.152;-1.788;2023-05-19T10:49:21;102237.59;;;21.29;100.00
25430;BME280;13360;48.152;-1.788;2023-05-19T10:51:47;102234.59;;;21.17;100.00
25430;BME280;13360;48.152;-1.788;2023-05-19T10:54:12;102209.84;;;20.93;100.00
25430;BME280;13360;48.152;-1.788;2023-05-19T10:56:41;102239.91;;;20.93;100.00
25430;BME280;13360;48.152;-1.788;2023-05-19T10:59:06;102204.06;;;20.73;100.00
25430;BME280;13360;48.152;-1.788;2023-05-19T11:01:32;102234.28;;;20.76;100.00
25430;BME280;13360;48.152;-1.788;2023-05-19T11:04:05;102210.66;;;20.77;100.00
25430;BME280;13360;48.152;-1.788;2023-05-19T11:06:31;102197.47;;;20.68;100.00
25430;BME280;13360;48.152;-1.788;2023-05-19T11:09:19;102203.25;;;20.63;100.00
25430;BME280;13360;48.152;-1.788;2023-05-19T11:11:47;102212.97;;;20.57;100.00
25430;BME280;13360;48.152;-1.788;2023-05-19T11:14:13;102208.50;;;20.56;100.00
25430;BME280;13360;48.152;-1.788;2023-05-19T11:16:39;102172.69;;;20.45;100.00
25430;BME280;13360;48.152;-1.788;2023-05-19T11:19:16;102206.03;;;20.46;100.00
25430;BME280;13360;48.152;-1.788;2023-05-19T11:21:47;102190.34;;;20.45;100.00
25430;BME280;13360;48.152;-1.788;2023-05-19T11:26:59;102205.53;;;20.44;100.00
25430;BME280;13360;48.152;-1.788;2023-05-19T11:29:41;102171.16;;;20.38;100.00
25430;BME280;13360;48.152;-1.788;2023-05-19T11:32:06;102179.91;;;20.37;100.00
25430;BME280;13360;48.152;-1.788;2023-05-19T11:34:31;102204.38;;;20.45;100.00
25430;BME280;13360;48.152;-1.788;2023-05-19T11:36:57;102158.78;;;20.31;100.00
25430;BME280;13360;48.152;-1.788;2023-05-19T11:39:23;102195.09;;;20.27;100.00
25430;BME280;13360;48.152;-1.788;2023-05-19T11:41:50;102170.66;;;20.28;100.00
25430;BME280;13360;48.152;-1.788;2023-05-19T11:44:15;102193.44;;;20.26;100.00
25430;BME280;13360;48.152;-1.788;2023-05-19T11:46:40;102139.97;;;20.23;100.00
25430;BME280;13360;48.152;-1.788;2023-05-19T11:49:05;102158.78;;;20.22;100.00
25430;BME280;13360;48.152;-1.788;2023-05-19T11:51:31;102163.38;;;20.18;100.00
25430;BME280;13360;48.152;-1.788;2023-05-19T11:53:57;102160.91;;;20.17;100.00
25430;BME280;13360;48.152;-1.788;2023-05-19T11:56:22;102181.03;;;20.19;100.00
25430;BME280;13360;48.152;-1.788;2023-05-19T11:58:47;102184.84;;;20.23;100.00
25430;BME280;13360;48.152;-1.788;2023-05-19T12:01:13;102166.38;;;20.22;100.00
25430;BME280;13360;48.152;-1.788;2023-05-19T12:03:38;102165.53;;;20.21;100.00
25430;BME280;13360;48.152;-1.788;2023-05-19T12:06:03;102160.06;;;20.16;100.00
25430;BME280;13360;48.152;-1.788;2023-05-19T12:08:30;102165.69;;;20.16;100.00
25430;BME280;13360;48.152;-1.788;2023-05-19T12:10:55;102172.59;;;20.19;100.00
25430;BME280;13360;48.152;-1.788;2023-05-19T12:13:21;102134.16;;;20.10;100.00
25430;BME280;13360;48.152;-1.788;2023-05-19T12:15:46;102134.50;;;20.00;100.00
25430;BME280;13360;48.152;-1.788;2023-05-19T12:18:12;102149.34;;;20.01;100.00
25430;BME280;13360;48.152;-1.788;2023-05-19T12:20:37;102132.31;;;19.97;100.00
25430;BME280;13360;48.152;-1.788;2023-05-19T12:23:03;102170.28;;;20.03;100.00
25430;BME280;13360;48.152;-1.788;2023-05-19T12:25:28;102166.00;;;20.06;100.00
25430;BME280;13360;48.152;-1.788;2023-05-19T12:27:58;102176.56;;;20.09;100.00
25430;BME280;13360;48.152;-1.788;2023-05-19T12:30:24;102141.91;;;20.05;100.00
25430;BME280;13360;48.152;-1.788;2023-05-19T12:32:52;102114.81;;;19.92;100.00
25430;BME280;13360;48.152;-1.788;2023-05-19T12:35:17;102130.00;;;19.82;100.00
25430;BME280;13360;48.152;-1.788;2023-05-19T12:37:43;102173.22;;;19.90;100.00
25430;BME280;13360;48.152;-1.788;2023-05-19T12:40:10;102166.13;;;19.92;100.00
25430;BME280;13360;48.152;-1.788;2023-05-19T12:42:42;102167.13;;;19.96;100.00
25430;BME280;13360;48.152;-1.788;2023-05-19T12:45:08;102125.88;;;19.88;100.00
25430;BME280;13360;48.152;-1.788;2023-05-19T12:47:33;102122.25;;;19.88;100.00
25430;BME280;13360;48.152;-1.788;2023-05-19T12:50:06;102164.00;;;19.98;100.00
25430;BME280;13360;48.152;-1.788;2023-05-19T12:52:33;102142.38;;;19.98;100.00
25430;BME280;13360;48.152;-1.788;2023-05-19T12:57:29;102126.03;;;19.92;100.00
25430;BME280;13360;48.152;-1.788;2023-05-19T13:05:23;102101.31;;;19.85;100.00